createdAt,value
2022-09-01T00:01:49.612Z,100.00
2022-09-01T00:04:20.363Z,100.00
2022-09-01T00:06:47.965Z,100.00
2022-09-01T00:09:18.243Z,100.00
2022-09-01T00:11:50.434Z,100.00
2022-09-01T00:14:30.225Z,100.00
2022-09-01T00:17:05.857Z,100.00
2022-09-01T00:19:33.983Z,100.00
2022-09-01T00:22:01.647Z,100.00
2022-09-01T00:24:29.640Z,100.00
2022-09-01T00:26:57.388Z,100.00
2022-09-01T00:29:26.155Z,100.00
2022-09-01T00:31:53.968Z,100.00
2022-09-01T00:34:21.043Z,100.00
2022-09-01T00:36:48.300Z,100.00
2022-09-01T00:39:15.924Z,100.00
2022-09-01T00:41:44.181Z,100.00
2022-09-01T00:44:14.490Z,100.00
2022-09-01T00:46:49.635Z,100.00
2022-09-01T00:49:34.993Z,100.00
2022-09-01T00:52:10.462Z,100.00
2022-09-01T00:54:42.959Z,100.00
2022-09-01T00:57:10.487Z,100.00
2022-09-01T00:59:43.753Z,100.00
2022-09-01T01:02:11.457Z,100.00
2022-09-01T01:04:38.867Z,100.00
2022-09-01T01:07:06.411Z,100.00
2022-09-01T01:09:36.287Z,100.00
2022-09-01T01:12:05.685Z,100.00
2022-09-01T01:14:37.048Z,100.00
2022-09-01T01:17:04.418Z,100.00
2022-09-01T01:19:55.936Z,100.00
2022-09-01T01:22:45.143Z,100.00
2022-09-01T01:25:12.932Z,100.00
2022-09-01T01:27:43.939Z,100.00
2022-09-01T01:30:12.537Z,100.00
2022-09-01T01:32:43.339Z,100.00
2022-09-01T01:35:15.030Z,100.00
2022-09-01T01:37:46.643Z,100.00
2022-09-01T01:40:16.629Z,100.00
2022-09-01T01:42:46.142Z,100.00
2022-09-01T01:45:17.294Z,100.00
2022-09-01T01:47:48.162Z,100.00
2022-09-01T01:50:15.784Z,100.00
2022-09-01T01:52:45.576Z,100.00
2022-09-01T01:55:13.304Z,100.00
2022-09-01T01:57:51.625Z,100.00
2022-09-01T02:00:30.042Z,100.00
2022-09-01T02:02:58.830Z,100.00
2022-09-01T02:05:32.280Z,100.00
2022-09-01T02:08:04.802Z,100.00
2022-09-01T02:10:35.528Z,100.00
2022-09-01T02:13:07.557Z,100.00
2022-09-01T02:15:46.477Z,100.00
2022-09-01T02:18:19.882Z,100.00
2022-09-01T02:20:49.623Z,100.00
2022-09-01T02:23:20.250Z,100.00
2022-09-01T02:26:14.040Z,100.00
2022-09-01T02:28:38.769Z,100.00
2022-09-01T02:31:09.054Z,100.00
2022-09-01T02:33:37.977Z,100.00
2022-09-01T02:36:14.421Z,100.00
2022-09-01T02:38:45.984Z,100.00
2022-09-01T02:41:15.697Z,100.00
2022-09-01T02:43:46.306Z,100.00
2022-09-01T02:46:14.886Z,100.00
2022-09-01T02:48:46.229Z,100.00
2022-09-01T02:51:17.326Z,100.00
2022-09-01T02:53:46.792Z,100.00
2022-09-01T02:56:14.537Z,100.00
2022-09-01T02:58:48.705Z,100.00
2022-09-01T03:01:20.720Z,100.00
2022-09-01T03:03:50.328Z,100.00
2022-09-01T03:06:24.285Z,100.00
2022-09-01T03:08:55.759Z,100.00
2022-09-01T03:11:24.804Z,100.00
2022-09-01T03:13:52.391Z,100.00
2022-09-01T03:16:19.559Z,100.00
2022-09-01T03:18:46.565Z,100.00
2022-09-01T03:21:17.756Z,100.00
2022-09-01T03:23:46.804Z,100.00
2022-09-01T03:26:15.217Z,100.00
2022-09-01T03:28:42.341Z,100.00
2022-09-01T03:31:09.293Z,100.00
2022-09-01T03:33:37.316Z,100.00
2022-09-01T03:36:15.117Z,100.00
2022-09-01T03:38:44.340Z,100.00
2022-09-01T03:41:13.219Z,100.00
2022-09-01T03:43:45.882Z,100.00
2022-09-01T03:46:23.121Z,100.00
2022-09-01T03:48:55.186Z,100.00
2022-09-01T03:51:23.737Z,100.00
2022-09-01T03:53:55.262Z,100.00
2022-09-01T03:56:25.675Z,100.00
2022-09-01T03:58:54.740Z,100.00
2022-09-01T04:01:22.033Z,100.00
2022-09-01T04:03:51.032Z,100.00
2022-09-01T04:06:24.268Z,100.00
2022-09-01T04:09:03.257Z,100.00
2022-09-01T04:11:33.929Z,100.00
2022-09-01T04:14:01.889Z,100.00
2022-09-01T04:16:52.971Z,100.00
2022-09-01T04:19:27.042Z,100.00
2022-09-01T04:22:00.222Z,100.00
2022-09-01T04:24:32.937Z,100.00
2022-09-01T04:27:02.509Z,100.00
2022-09-01T04:29:32.120Z,100.00
2022-09-01T04:32:07.176Z,100.00
2022-09-01T04:34:38.692Z,100.00
2022-09-01T04:37:10.206Z,100.00
2022-09-01T04:39:39.443Z,100.00
2022-09-01T04:42:08.904Z,100.00
2022-09-01T04:44:36.784Z,100.00
2022-09-01T04:47:10.923Z,100.00
2022-09-01T04:49:38.455Z,100.00
2022-09-01T04:52:05.339Z,100.00
2022-09-01T04:54:35.042Z,100.00
2022-09-01T04:57:02.145Z,100.00
2022-09-01T04:59:30.655Z,100.00
2022-09-01T05:02:01.304Z,100.00
2022-09-01T05:04:35.381Z,100.00
2022-09-01T05:07:04.317Z,100.00
2022-09-01T05:09:37.293Z,100.00
2022-09-01T05:12:16.070Z,100.00
2022-09-01T05:14:48.993Z,100.00
2022-09-01T05:17:21.865Z,100.00
2022-09-01T05:19:51.272Z,100.00
2022-09-01T05:22:22.461Z,100.00
2022-09-01T05:25:21.167Z,100.00
2022-09-01T05:27:50.030Z,100.00
2022-09-01T05:30:19.525Z,100.00
2022-09-01T05:32:49.308Z,100.00
2022-09-01T05:35:17.659Z,100.00
2022-09-01T05:37:44.967Z,100.00
2022-09-01T05:40:16.370Z,100.00
2022-09-01T05:42:45.455Z,100.00
2022-09-01T05:45:14.340Z,100.00
2022-09-01T05:47:42.219Z,100.00
2022-09-01T05:50:14.508Z,100.00
2022-09-01T05:52:47.973Z,100.00
2022-09-01T05:55:15.500Z,100.00
2022-09-01T05:57:45.296Z,100.00
2022-09-01T06:00:14.522Z,100.00
2022-09-01T06:02:43.268Z,100.00
2022-09-01T06:05:15.965Z,100.00
2022-09-01T06:07:44.355Z,100.00
2022-09-01T06:10:14.767Z,100.00
2022-09-01T06:12:43.246Z,100.00
2022-09-01T06:15:16.128Z,100.00
2022-09-01T06:17:48.093Z,100.00
2022-09-01T06:20:19.031Z,100.00
2022-09-01T06:22:47.638Z,100.00
2022-09-01T06:25:18.561Z,100.00
2022-09-01T06:27:48.331Z,100.00
2022-09-01T06:30:24.366Z,100.00
2022-09-01T06:33:11.397Z,100.00
2022-09-01T06:35:47.236Z,100.00
2022-09-01T06:38:17.632Z,100.00
2022-09-01T06:40:48.675Z,100.00
2022-09-01T06:43:19.661Z,100.00
2022-09-01T06:45:54.625Z,100.00
2022-09-01T06:48:23.783Z,100.00
2022-09-01T06:53:51.281Z,100.00
2022-09-01T06:56:19.701Z,100.00
2022-09-01T06:58:48.508Z,100.00
2022-09-01T07:01:20.056Z,100.00
2022-09-01T07:03:52.003Z,100.00
2022-09-01T07:09:50.127Z,100.00
2022-09-01T07:13:05.035Z,100.00
2022-09-01T07:18:25.466Z,100.00
2022-09-01T07:21:36.879Z,100.00
2022-09-01T07:24:17.748Z,100.00
2022-09-01T07:26:35.665Z,100.00
2022-09-01T07:29:06.126Z,100.00
2022-09-01T07:34:42.163Z,100.00
2022-09-01T07:43:27.212Z,100.00
2022-09-01T07:49:29.467Z,100.00
2022-09-01T07:51:53.461Z,100.00
2022-09-01T07:54:23.959Z,100.00
2022-09-01T07:56:52.122Z,100.00
2022-09-01T07:59:21.365Z,100.00
2022-09-01T08:02:05.800Z,100.00
2022-09-01T08:04:34.681Z,100.00
2022-09-01T08:07:03.366Z,100.00
2022-09-01T08:09:37.724Z,100.00
2022-09-01T08:12:08.460Z,100.00
2022-09-01T08:14:43.309Z,100.00
2022-09-01T08:17:18.368Z,100.00
2022-09-01T08:19:59.889Z,100.00
2022-09-01T08:22:53.559Z,100.00
2022-09-01T08:25:25.041Z,100.00
2022-09-01T08:27:59.686Z,100.00
2022-09-01T08:30:28.463Z,100.00
2022-09-01T08:32:55.681Z,100.00
2022-09-01T08:35:23.373Z,100.00
2022-09-01T08:37:50.443Z,100.00
2022-09-01T08:40:20.843Z,100.00
2022-09-01T08:43:02.992Z,100.00
2022-09-01T08:45:33.701Z,100.00
2022-09-01T08:49:09.692Z,100.00
2022-09-01T08:51:34.597Z,100.00
2022-09-01T08:54:06.593Z,100.00
2022-09-01T08:56:39.830Z,100.00
2022-09-01T08:59:12.851Z,99.49
2022-09-01T09:02:12.518Z,98.37
2022-09-01T09:05:17.224Z,98.53
2022-09-01T09:08:06.547Z,97.34
2022-09-01T09:10:50.433Z,96.38
2022-09-01T09:13:24.801Z,87.95
2022-09-01T09:16:08.707Z,80.25
2022-09-01T09:18:40.236Z,77.88
2022-09-01T09:21:24.584Z,78.10
2022-09-01T09:24:01.070Z,73.47
2022-09-01T09:26:48.586Z,73.65
2022-09-01T09:29:15.495Z,72.76
2022-09-01T09:32:00.382Z,73.56
2022-09-01T09:34:34.981Z,72.37
2022-09-01T09:37:23.904Z,70.83
2022-09-01T09:40:08.581Z,71.20
2022-09-01T09:42:59.614Z,68.84
2022-09-01T09:45:41.672Z,67.53
2022-09-01T09:48:29.640Z,68.17
2022-09-01T09:51:21.505Z,70.21
2022-09-01T09:53:49.084Z,68.14
2022-09-01T09:56:15.892Z,66.88
2022-09-01T09:58:46.935Z,63.07
2022-09-01T10:01:26.245Z,61.14
2022-09-01T10:03:59.188Z,56.65
2022-09-01T10:06:47.400Z,55.78
2022-09-01T10:09:37.189Z,52.07
2022-09-01T10:12:05.634Z,53.82
2022-09-01T10:14:51.779Z,53.41
2022-09-01T10:17:38.565Z,53.92
2022-09-01T10:20:14.699Z,53.93
2022-09-01T10:22:41.610Z,52.71
2022-09-01T10:25:18.018Z,48.60
2022-09-01T10:27:50.228Z,47.84
2022-09-01T10:30:21.754Z,45.67
2022-09-01T10:33:01.505Z,47.16
2022-09-01T10:35:39.028Z,43.84
2022-09-01T10:38:11.042Z,45.35
2022-09-01T10:40:49.216Z,41.66
2022-09-01T10:43:41.692Z,42.24
2022-09-01T10:46:18.241Z,40.31
2022-09-01T10:48:51.762Z,38.47
2022-09-01T10:51:35.748Z,37.06
2022-09-01T10:54:05.827Z,38.49
2022-09-01T10:56:52.043Z,39.37
2022-09-01T10:59:41.836Z,40.94
2022-09-01T11:02:28.096Z,40.48
2022-09-01T11:04:59.412Z,39.55
2022-09-01T11:07:58.203Z,39.94
2022-09-01T11:10:34.226Z,40.89
2022-09-01T11:13:21.049Z,42.64
2022-09-01T11:15:48.815Z,43.62
2022-09-01T11:18:27.487Z,44.42
2022-09-01T11:20:56.309Z,44.67
2022-09-01T11:23:27.793Z,45.87
2022-09-01T11:26:21.864Z,43.60
2022-09-01T11:28:49.897Z,45.26
2022-09-01T11:31:31.474Z,46.31
2022-09-01T11:34:20.929Z,45.46
2022-09-01T11:37:00.520Z,46.85
2022-09-01T11:39:52.544Z,46.81
2022-09-01T11:42:26.844Z,45.54
2022-09-01T11:45:03.194Z,43.59
2022-09-01T11:47:46.756Z,43.39
2022-09-01T11:50:16.580Z,42.94
2022-09-01T11:53:12.452Z,42.03
2022-09-01T11:55:42.784Z,41.61
2022-09-01T11:58:29.110Z,40.24
2022-09-01T12:00:57.959Z,40.25
2022-09-01T12:03:30.689Z,40.22
2022-09-01T12:06:04.286Z,38.59
2022-09-01T12:08:34.857Z,37.14
2022-09-01T12:11:10.073Z,36.18
2022-09-01T12:13:37.527Z,35.93
2022-09-01T12:16:17.939Z,36.91
2022-09-01T12:18:51.860Z,34.32
2022-09-01T12:21:29.242Z,31.55
2022-09-01T12:24:17.870Z,31.93
2022-09-01T12:26:49.249Z,32.13
2022-09-01T12:29:17.306Z,32.41
2022-09-01T12:31:47.426Z,31.30
2022-09-01T12:34:47.911Z,29.91
2022-09-01T12:37:14.883Z,27.10
2022-09-01T12:39:47.991Z,24.86
2022-09-01T12:42:41.125Z,25.05
2022-09-01T12:45:11.174Z,24.97
2022-09-01T12:47:38.418Z,26.44
2022-09-01T12:50:12.885Z,26.93
2022-09-01T12:52:58.298Z,26.43
2022-09-01T12:58:25.757Z,27.75
2022-09-01T13:01:10.163Z,29.70
2022-09-01T13:04:03.766Z,30.95
2022-09-01T13:06:30.577Z,31.58
2022-09-01T13:08:57.393Z,31.73
2022-09-01T13:11:24.372Z,31.79
2022-09-01T13:13:51.152Z,32.94
2022-09-01T13:16:18.049Z,33.75
2022-09-01T13:21:32.928Z,34.99
2022-09-01T13:23:59.846Z,34.93
2022-09-01T13:26:29.846Z,36.50
2022-09-01T13:28:57.356Z,36.13
2022-09-01T13:31:31.678Z,36.26
2022-09-01T13:34:22.995Z,39.73
2022-09-01T13:36:51.043Z,42.23
2022-09-01T13:39:19.039Z,43.34
2022-09-01T13:41:47.349Z,43.32
2022-09-01T13:44:18.650Z,43.85
2022-09-01T13:47:28.677Z,45.08
2022-09-01T13:52:21.675Z,46.38
2022-09-01T13:54:48.468Z,47.28
2022-09-01T13:57:16.672Z,47.68
2022-09-01T13:59:44.445Z,49.54
2022-09-01T14:02:11.223Z,50.23
2022-09-01T14:04:38.391Z,52.55
2022-09-01T14:07:05.454Z,52.62
2022-09-01T14:09:32.369Z,51.65
2022-09-01T14:11:59.478Z,51.32
2022-09-01T14:14:26.672Z,51.74
2022-09-01T14:16:54.068Z,52.37
2022-09-01T14:19:21.073Z,52.39
2022-09-01T14:21:48.868Z,53.74
2022-09-01T14:24:16.581Z,54.20
2022-09-01T14:26:43.409Z,54.85
2022-09-01T14:29:10.365Z,56.73
2022-09-01T14:31:37.902Z,59.43
2022-09-01T14:34:06.876Z,65.44
2022-09-01T14:36:34.175Z,70.23
2022-09-01T14:39:01.186Z,80.12
2022-09-01T14:41:28.220Z,82.78
2022-09-01T14:44:02.781Z,89.57
2022-09-01T14:46:34.396Z,86.83
2022-09-01T14:49:02.782Z,89.13
2022-09-01T14:54:18.197Z,84.60
2022-09-01T14:57:28.363Z,80.48
2022-09-01T14:59:32.670Z,85.58
2022-09-01T15:02:00.755Z,84.27
2022-09-01T15:04:28.013Z,80.61
2022-09-01T15:06:55.868Z,75.20
2022-09-01T15:09:22.760Z,77.33
2022-09-01T15:11:49.571Z,81.27
2022-09-01T15:14:16.561Z,84.75
2022-09-01T15:16:43.469Z,83.85
2022-09-01T15:19:13.451Z,82.37
2022-09-01T15:21:42.808Z,83.28
2022-09-01T15:24:10.662Z,86.20
2022-09-01T15:26:41.000Z,89.83
2022-09-01T15:29:12.121Z,89.87
2022-09-01T15:31:39.426Z,92.18
2022-09-01T15:34:06.574Z,92.53
2022-09-01T15:36:37.188Z,89.41
2022-09-01T15:39:04.151Z,89.52
2022-09-01T15:41:33.503Z,87.93
2022-09-01T15:44:05.510Z,88.02
2022-09-01T15:46:34.137Z,88.82
2022-09-01T15:49:05.936Z,86.22
2022-09-01T15:51:38.706Z,87.42
2022-09-01T15:54:17.920Z,88.37
2022-09-01T15:56:47.323Z,89.04
2022-09-01T15:59:15.213Z,87.83
2022-09-01T16:01:45.066Z,89.05
2022-09-01T16:04:20.077Z,89.76
2022-09-01T16:06:49.594Z,89.48
2022-09-01T16:09:18.609Z,90.62
2022-09-01T16:11:45.470Z,90.88
2022-09-01T16:14:12.535Z,91.10
2022-09-01T16:16:56.753Z,92.98
2022-09-01T16:19:35.886Z,95.67
2022-09-01T16:22:25.528Z,96.86
2022-09-01T16:24:57.940Z,98.01
2022-09-01T16:27:33.037Z,94.25
2022-09-01T16:30:08.265Z,95.61
2022-09-01T16:32:36.301Z,96.57
2022-09-01T16:35:04.536Z,97.30
2022-09-01T16:37:41.448Z,94.36
2022-09-01T16:40:28.234Z,94.23
2022-09-01T16:43:17.450Z,92.28
2022-09-01T16:46:20.559Z,92.42
2022-09-01T16:49:18.345Z,90.28
2022-09-01T16:52:02.152Z,89.53
2022-09-01T16:54:49.512Z,91.64
2022-09-01T16:57:32.652Z,89.24
2022-09-01T17:00:01.916Z,90.70
2022-09-01T17:02:51.102Z,92.23
2022-09-01T17:05:25.889Z,92.02
2022-09-01T17:07:55.437Z,92.16
2022-09-01T17:11:18.679Z,92.28
2022-09-01T17:13:49.477Z,92.67
2022-09-01T17:16:29.794Z,94.93
2022-09-01T17:18:59.750Z,93.69
2022-09-01T17:21:45.342Z,92.78
2022-09-01T17:24:38.679Z,93.42
2022-09-01T17:27:28.523Z,94.71
2022-09-01T17:29:57.257Z,96.17
2022-09-01T17:32:54.917Z,97.77
2022-09-01T17:36:02.938Z,97.55
2022-09-01T17:39:07.547Z,98.17
2022-09-01T17:42:25.081Z,99.70
2022-09-01T17:44:56.399Z,100.00
2022-09-01T17:47:32.663Z,100.00
2022-09-01T17:50:08.188Z,100.00
2022-09-01T17:52:59.745Z,100.00
2022-09-01T17:55:53.786Z,100.00
2022-09-01T17:58:48.519Z,100.00
2022-09-01T18:01:34.594Z,100.00
2022-09-01T18:04:16.988Z,100.00
2022-09-01T18:07:04.833Z,100.00
2022-09-01T18:09:41.533Z,100.00
2022-09-01T18:12:13.530Z,100.00
2022-09-01T18:14:43.447Z,100.00
2022-09-01T18:17:16.907Z,100.00
2022-09-01T18:19:48.115Z,100.00
2022-09-01T18:22:22.891Z,100.00
2022-09-01T18:24:57.911Z,100.00
2022-09-01T18:27:27.711Z,100.00
2022-09-01T18:29:56.971Z,100.00
2022-09-01T18:32:49.504Z,100.00
2022-09-01T18:35:42.157Z,100.00
2022-09-01T18:38:14.895Z,100.00
2022-09-01T18:40:48.735Z,100.00
2022-09-01T18:43:29.293Z,100.00
2022-09-01T18:46:05.157Z,100.00
2022-09-01T18:48:44.327Z,100.00
2022-09-01T18:51:29.835Z,100.00
2022-09-01T18:54:20.990Z,100.00
2022-09-01T18:56:51.875Z,100.00
2022-09-01T18:59:48.004Z,100.00
2022-09-01T19:02:21.043Z,100.00
2022-09-01T19:04:52.705Z,100.00
2022-09-01T19:07:42.252Z,100.00
2022-09-01T19:10:27.362Z,100.00
2022-09-01T19:12:57.108Z,100.00
2022-09-01T19:15:47.103Z,100.00
2022-09-01T19:18:20.195Z,100.00
2022-09-01T19:21:05.906Z,100.00
2022-09-01T19:23:47.846Z,100.00
2022-09-01T19:26:21.484Z,100.00
2022-09-01T19:29:05.230Z,100.00
2022-09-01T19:31:42.391Z,100.00
2022-09-01T19:34:25.693Z,100.00
2022-09-01T19:36:59.817Z,100.00
2022-09-01T19:39:33.530Z,100.00
2022-09-01T19:42:08.997Z,100.00
2022-09-01T19:44:47.861Z,100.00
2022-09-01T19:47:21.337Z,100.00
2022-09-01T19:50:15.068Z,100.00
2022-09-01T19:52:56.831Z,100.00
2022-09-01T19:55:43.086Z,100.00
2022-09-01T19:58:21.218Z,100.00
2022-09-01T20:01:01.446Z,100.00
2022-09-01T20:03:46.749Z,100.00
2022-09-01T20:06:35.312Z,100.00
2022-09-01T20:09:07.603Z,100.00
2022-09-01T20:11:49.603Z,100.00
2022-09-01T20:14:32.494Z,100.00
2022-09-01T20:17:06.373Z,100.00
2022-09-01T20:19:55.464Z,100.00
2022-09-01T20:22:50.125Z,100.00
2022-09-01T20:25:19.297Z,100.00
2022-09-01T20:27:52.150Z,100.00
2022-09-01T20:30:37.229Z,100.00
2022-09-01T20:33:09.338Z,100.00
2022-09-01T20:35:39.063Z,100.00
2022-09-01T20:38:55.224Z,100.00
2022-09-01T20:41:39.542Z,100.00
2022-09-01T20:44:15.673Z,100.00
2022-09-01T20:46:42.507Z,100.00
2022-09-01T20:49:15.996Z,100.00
2022-09-01T20:51:50.437Z,100.00
2022-09-01T20:54:57.639Z,100.00
2022-09-01T20:57:55.187Z,100.00
2022-09-01T21:00:26.063Z,100.00
2022-09-01T21:03:17.752Z,100.00
2022-09-01T21:06:42.843Z,100.00
2022-09-01T21:09:18.888Z,100.00
2022-09-01T21:11:55.147Z,100.00
2022-09-01T21:14:31.519Z,100.00
2022-09-01T21:17:45.924Z,100.00
2022-09-01T21:20:36.412Z,100.00
2022-09-01T21:23:03.787Z,100.00
2022-09-01T21:25:33.553Z,100.00
2022-09-01T21:28:04.542Z,100.00
2022-09-01T21:30:34.903Z,100.00
2022-09-01T21:33:03.041Z,100.00
2022-09-01T21:35:30.038Z,100.00
2022-09-01T21:37:56.821Z,100.00
2022-09-01T21:40:25.446Z,100.00
2022-09-01T21:43:00.835Z,100.00
2022-09-01T21:45:27.932Z,100.00
2022-09-01T21:47:54.780Z,100.00
2022-09-01T21:50:23.628Z,100.00
2022-09-01T21:52:50.915Z,100.00
2022-09-01T21:55:22.523Z,100.00
2022-09-01T21:57:50.946Z,100.00
2022-09-01T22:00:24.139Z,100.00
2022-09-01T22:02:51.625Z,100.00
2022-09-01T22:05:18.520Z,100.00
2022-09-01T22:07:47.213Z,100.00
2022-09-01T22:10:18.072Z,100.00
2022-09-01T22:12:46.595Z,100.00
2022-09-01T22:15:15.913Z,100.00
2022-09-01T22:17:43.352Z,100.00
2022-09-01T22:20:12.313Z,100.00
2022-09-01T22:22:39.788Z,100.00
2022-09-01T22:25:11.256Z,100.00
2022-09-01T22:27:38.091Z,100.00
2022-09-01T22:30:06.290Z,100.00
2022-09-01T22:32:36.245Z,100.00
2022-09-01T22:35:04.971Z,100.00
2022-09-01T22:37:31.758Z,100.00
2022-09-01T22:39:58.650Z,100.00
2022-09-01T22:42:25.770Z,100.00
2022-09-01T22:44:52.541Z,100.00
2022-09-01T22:47:19.488Z,100.00
2022-09-01T22:49:46.235Z,100.00
2022-09-01T22:52:13.867Z,100.00
2022-09-01T22:54:41.135Z,100.00
2022-09-01T22:57:07.876Z,100.00
2022-09-01T22:59:34.778Z,100.00
2022-09-01T23:02:01.921Z,100.00
2022-09-01T23:04:32.143Z,100.00
2022-09-01T23:06:59.266Z,100.00
2022-09-01T23:09:26.105Z,100.00
2022-09-01T23:11:52.974Z,100.00
2022-09-01T23:14:19.808Z,100.00
2022-09-01T23:16:47.492Z,100.00
2022-09-01T23:19:22.505Z,100.00
2022-09-01T23:21:51.181Z,100.00
2022-09-01T23:24:19.855Z,100.00
2022-09-01T23:26:47.968Z,100.00
2022-09-01T23:29:15.154Z,100.00
2022-09-01T23:31:43.672Z,100.00
2022-09-01T23:34:10.634Z,100.00
2022-09-01T23:36:37.603Z,100.00
2022-09-01T23:39:05.797Z,100.00
2022-09-01T23:41:34.954Z,100.00
2022-09-01T23:44:04.223Z,100.00
2022-09-01T23:46:34.119Z,100.00
2022-09-01T23:49:02.215Z,100.00
2022-09-01T23:51:29.186Z,100.00
2022-09-01T23:53:56.181Z,100.00
2022-09-01T23:56:25.815Z,100.00
2022-09-01T23:58:53.019Z,100.00
